Time;durP1;ratioP1;P1;durP2;ratioP2;P2;SDS_P1;SDS_P2;PMS_P1;PMS_P2;Temp;Humidity;BMP_temperature;BMP_pressure;BME280_temperature;BME280_humidity;BME280_pressure;Samples;Min_cycle;Max_cycle;Signal;HPM_P1;HPM_P2
2021/06/25 00:01:53;;;;;;;9.52;4.50;;;26.00;95.20;;;;;;5052030;28;20034;-87
2021/06/25 00:04:19;;;;;;;12.63;4.68;;;26.00;95.10;;;;;;5053476;28;20029;-87
2021/06/25 00:06:45;;;;;;;11.27;4.00;;;26.00;95.30;;;;;;5053106;28;20479;-87
2021/06/25 00:09:11;;;;;;;16.48;4.45;;;26.00;95.20;;;;;;5051816;28;20025;-88
2021/06/25 00:11:37;;;;;;;14.63;4.63;;;26.00;94.70;;;;;;5051883;28;20031;-88
2021/06/25 00:14:07;;;;;;;8.75;4.38;;;26.00;94.80;;;;;;5055489;28;20025;-87
2021/06/25 00:16:33;;;;;;;10.02;4.35;;;25.90;94.90;;;;;;5055424;28;20028;-87
2021/06/25 00:18:58;;;;;;;7.97;4.00;;;25.90;94.80;;;;;;5056622;28;20029;-87
2021/06/25 00:21:25;;;;;;;12.45;4.35;;;26.00;94.70;;;;;;5056974;28;20470;-87
2021/06/25 00:23:50;;;;;;;12.18;4.38;;;26.00;94.50;;;;;;5055310;28;20033;-87
2021/06/25 00:26:16;;;;;;;9.73;4.28;;;25.90;94.70;;;;;;5056376;28;20083;-87
2021/06/25 00:28:42;;;;;;;8.65;4.50;;;25.90;94.70;;;;;;5056266;28;20025;-86
2021/06/25 00:31:07;;;;;;;7.90;3.88;;;25.90;94.80;;;;;;5055054;28;20384;-87
2021/06/25 00:33:33;;;;;;;11.73;4.32;;;25.90;94.70;;;;;;5056519;28;20047;-87
2021/06/25 00:35:59;;;;;;;8.00;3.70;;;25.90;94.90;;;;;;5055016;28;20048;-87
2021/06/25 00:38:25;;;;;;;7.03;4.00;;;25.80;94.60;;;;;;5054899;28;20025;-87
2021/06/25 00:40:50;;;;;;;11.10;4.45;;;25.80;94.70;;;;;;5055130;28;20275;-89
2021/06/25 00:43:16;;;;;;;7.53;4.07;;;25.80;94.80;;;;;;5055091;28;20064;-88
2021/06/25 00:45:42;;;;;;;12.40;4.80;;;25.70;94.70;;;;;;5056033;28;20029;-87
2021/06/25 00:48:08;;;;;;;9.15;4.18;;;25.70;94.90;;;;;;5054688;28;20049;-88
2021/06/25 00:50:35;;;;;;;7.22;4.32;;;25.60;95.10;;;;;;5056027;28;20387;-88
2021/06/25 00:53:01;;;;;;;11.82;4.32;;;25.60;95.00;;;;;;5056272;28;20037;-87
2021/06/25 00:55:41;;;;;;;13.30;4.57;;;25.60;95.00;;;;;;5055902;28;20063;-88
2021/06/25 00:58:07;;;;;;;11.07;4.60;;;25.60;95.00;;;;;;5055041;28;20025;-87
2021/06/25 01:00:33;;;;;;;8.82;3.97;;;25.50;95.00;;;;;;5055936;28;20021;-88
2021/06/25 01:03:00;;;;;;;10.73;4.90;;;25.50;95.20;;;;;;5054777;28;20027;-88
2021/06/25 01:05:26;;;;;;;13.60;5.00;;;25.50;95.00;;;;;;5071064;28;20075;-88
2021/06/25 01:07:51;;;;;;;13.18;4.82;;;25.40;95.20;;;;;;5071334;28;20025;-87
2021/06/25 01:10:17;;;;;;;10.60;5.00;;;25.50;95.20;;;;;;5071049;28;20032;-88
2021/06/25 01:12:43;;;;;;;10.35;4.45;;;25.50;95.20;;;;;;5071221;28;20021;-87
2021/06/25 01:15:11;;;;;;;8.15;4.10;;;25.50;95.20;;;;;;5071063;28;20055;-88
2021/06/25 01:17:40;;;;;;;13.25;5.28;;;25.50;95.30;;;;;;5054245;28;20021;-88
2021/06/25 01:20:12;;;;;;;11.93;5.03;;;25.40;95.30;;;;;;5070810;28;20079;-88
2021/06/25 01:22:40;;;;;;;8.57;4.60;;;25.40;95.30;;;;;;5070903;28;20033;-87
2021/06/25 01:25:11;;;;;;;11.77;4.18;;;25.40;95.50;;;;;;5071044;28;20040;-88
2021/06/25 01:27:38;;;;;;;11.13;4.38;;;25.30;95.60;;;;;;5070858;28;20035;-88
2021/06/25 01:30:14;;;;;;;8.18;4.80;;;25.30;95.60;;;;;;5070993;28;20441;-89
2021/06/25 01:32:40;;;;;;;8.80;4.63;;;25.30;95.60;;;;;;5055451;28;20104;-89
2021/06/25 01:35:07;;;;;;;12.48;5.05;;;25.20;95.70;;;;;;5071215;28;20044;-89
2021/06/25 01:37:33;;;;;;;15.27;5.45;;;25.20;95.90;;;;;;5071067;28;20116;-88
2021/06/25 01:39:59;;;;;;;10.75;4.60;;;25.10;95.90;;;;;;5071001;28;20056;-89
2021/06/25 01:42:25;;;;;;;7.03;4.32;;;25.00;96.00;;;;;;5055607;28;20029;-88
2021/06/25 01:44:56;;;;;;;11.50;5.00;;;25.00;96.10;;;;;;5070824;28;20091;-89
2021/06/25 01:47:22;;;;;;;15.85;5.10;;;25.00;96.10;;;;;;5070495;28;20048;-88
2021/06/25 01:49:47;;;;;;;10.10;4.75;;;25.00;96.10;;;;;;5055270;28;20483;-89
2021/06/25 01:52:20;;;;;;;13.70;5.70;;;25.00;96.20;;;;;;5070810;28;20475;-89
2021/06/25 01:54:47;;;;;;;8.15;5.35;;;25.00;96.30;;;;;;5070895;28;20040;-89
2021/06/25 01:57:13;;;;;;;8.48;5.25;;;25.00;96.30;;;;;;5070742;28;20021;-89
2021/06/25 01:59:40;;;;;;;8.80;5.45;;;25.00;96.30;;;;;;5055476;28;20542;-89
2021/06/25 02:02:06;;;;;;;11.27;5.57;;;25.00;96.40;;;;;;5070479;28;20060;-89
2021/06/25 02:04:32;;;;;;;9.43;5.70;;;25.00;96.30;;;;;;5070208;28;20057;-88
2021/06/25 02:06:58;;;;;;;11.68;5.85;;;25.00;96.40;;;;;;5055056;28;20040;-88
2021/06/25 02:09:24;;;;;;;14.45;6.07;;;25.00;96.50;;;;;;5070140;28;20040;-88
2021/06/25 02:11:49;;;;;;;12.20;5.88;;;24.90;96.60;;;;;;5054575;28;20399;-88
2021/06/25 02:14:15;;;;;;;12.00;6.07;;;24.90;96.50;;;;;;5070006;28;20098;-88
2021/06/25 02:16:41;;;;;;;15.35;6.13;;;25.00;96.40;;;;;;5070036;28;20025;-88
2021/06/25 02:19:06;;;;;;;14.90;6.35;;;25.00;96.60;;;;;;5078167;28;20108;-88
2021/06/25 02:21:32;;;;;;;7.75;5.70;;;24.90;96.30;;;;;;5074237;28;20056;-88
2021/06/25 02:23:58;;;;;;;9.60;5.82;;;25.00;96.30;;;;;;5053123;28;20475;-88
2021/06/25 02:26:23;;;;;;;10.90;5.93;;;25.00;96.30;;;;;;5053336;28;20070;-89
2021/06/25 02:28:49;;;;;;;10.75;5.63;;;25.00;96.20;;;;;;5053124;28;20469;-88
2021/06/25 02:31:17;;;;;;;10.98;5.78;;;25.00;96.30;;;;;;5061387;28;20029;-88
2021/06/25 02:33:43;;;;;;;14.70;6.07;;;25.00;96.30;;;;;;5074517;28;20467;-89
2021/06/25 02:36:08;;;;;;;9.05;5.50;;;25.10;96.50;;;;;;5053623;28;20035;-89
2021/06/25 02:38:34;;;;;;;13.63;5.82;;;25.10;96.60;;;;;;5053264;28;20029;-89
2021/06/25 02:41:00;;;;;;;9.00;5.35;;;25.00;96.40;;;;;;5054770;28;20029;-89
2021/06/25 02:43:25;;;;;;;13.70;5.80;;;25.10;96.30;;;;;;5053527;28;20037;-89
2021/06/25 02:45:51;;;;;;;15.05;6.05;;;25.10;96.20;;;;;;5054387;28;20037;-89
2021/06/25 02:48:17;;;;;;;9.70;5.60;;;25.10;96.20;;;;;;5053192;28;20045;-89
2021/06/25 02:50:42;;;;;;;8.57;5.75;;;25.10;96.30;;;;;;5054945;28;20100;-89
2021/06/25 02:53:09;;;;;;;14.25;6.45;;;25.20;96.20;;;;;;5053160;28;20025;-89
2021/06/25 02:55:35;;;;;;;8.73;5.32;;;25.20;96.20;;;;;;5054258;28;20021;-89
2021/06/25 02:58:00;;;;;;;10.15;5.35;;;25.20;96.20;;;;;;5052890;28;20025;-89
2021/06/25 03:00:26;;;;;;;13.20;5.97;;;25.20;96.20;;;;;;5054167;28;20083;-89
2021/06/25 03:02:52;;;;;;;11.88;6.10;;;25.20;96.50;;;;;;5052867;28;20490;-89
2021/06/25 03:05:18;;;;;;;13.15;6.45;;;25.20;96.70;;;;;;5052923;28;20490;-89
2021/06/25 03:07:44;;;;;;;23.75;7.57;;;25.10;96.60;;;;;;5053129;28;20498;-89
2021/06/25 03:10:11;;;;;;;13.25;6.32;;;25.10;96.80;;;;;;5053015;28;20035;-89
2021/06/25 03:12:38;;;;;;;11.60;6.05;;;25.00;96.80;;;;;;5054080;28;20082;-89
2021/06/25 03:15:06;;;;;;;8.00;6.00;;;25.10;96.80;;;;;;5052785;28;20360;-89
2021/06/25 03:17:32;;;;;;;13.57;5.72;;;25.10;96.80;;;;;;5052108;28;20024;-89
2021/06/25 03:19:57;;;;;;;13.85;6.30;;;25.20;96.80;;;;;;5052988;28;20190;-89
2021/06/25 03:22:23;;;;;;;12.43;6.53;;;25.20;96.80;;;;;;5052835;28;20029;-89
2021/06/25 03:24:49;;;;;;;14.75;6.65;;;25.20;96.70;;;;;;5052900;28;20146;-89
2021/06/25 12:30:59;;;;;;;6.78;4.25;;;34.10;70.50;;;;;;5071124;28;20856;-81
2021/06/25 12:33:29;;;;;;;6.53;4.60;;;33.90;66.10;;;;;;5065790;28;20017;-82
2021/06/25 12:35:56;;;;;;;50.45;21.55;;;33.90;67.90;;;;;;5050640;28;20025;-82
2021/06/25 12:38:24;;;;;;;104.82;18.25;;;34.00;70.30;;;;;;5050630;28;20017;-83
2021/06/25 12:40:55;;;;;;;13.15;6.82;;;34.10;70.60;;;;;;5050663;28;20064;-81
2021/06/25 12:43:26;;;;;;;64.05;20.92;;;34.00;78.40;;;;;;5050617;28;20021;-83
2021/06/25 12:45:58;;;;;;;7.88;5.60;;;33.80;80.50;;;;;;5049327;28;20120;-84
2021/06/25 12:48:29;;;;;;;494.85;97.07;;;33.70;78.40;;;;;;5049149;28;20021;-83
2021/06/25 12:51:09;;;;;;;14.70;6.40;;;33.50;92.80;;;;;;5050486;28;20032;-83
2021/06/25 12:53:37;;;;;;;96.18;30.20;;;32.60;90.20;;;;;;5048996;28;20487;-85
2021/06/25 12:56:11;;;;;;;16.50;8.93;;;31.90;92.50;;;;;;5050155;28;20529;-81
2021/06/25 12:58:39;;;;;;;10.63;4.72;;;31.60;93.00;;;;;;5050295;28;20116;-81
2021/06/25 18:41:18;;;;;;;14.52;7.40;;;28.00;79.90;;;;;;5157424;27;20118;-83
2021/06/25 18:43:44;;;;;;;12.25;9.30;;;27.90;79.40;;;;;;5152616;27;20048;-85
2021/06/25 18:46:11;;;;;;;10.68;5.55;;;28.00;79.60;;;;;;5133485;27;20027;-81
2021/06/25 18:48:38;;;;;;;10.13;5.35;;;28.00;79.30;;;;;;5152548;27;20460;-91
2021/06/25 18:51:04;;;;;;;10.10;4.78;;;28.00;79.20;;;;;;5135964;27;20388;-86
2021/06/25 18:53:30;;;;;;;9.98;5.55;;;28.00;78.90;;;;;;5135034;27;20853;-84
2021/06/25 18:55:56;;;;;;;11.63;5.30;;;28.10;78.30;;;;;;5154245;27;20019;-87
2021/06/25 18:58:22;;;;;;;7.45;4.75;;;28.10;78.10;;;;;;5134005;27;20023;-82
2021/06/25 19:00:50;;;;;;;9.85;4.70;;;28.20;78.10;;;;;;5151489;27;20380;-84
2021/06/25 19:03:16;;;;;;;20.98;5.53;;;28.20;78.10;;;;;;5133402;27;20118;-84
2021/06/25 19:05:42;;;;;;;9.38;4.95;;;28.20;78.40;;;;;;5151968;27;20048;-85
2021/06/25 19:08:07;;;;;;;9.38;4.68;;;28.30;78.20;;;;;;5149266;27;20459;-83
2021/06/25 19:10:33;;;;;;;10.85;4.82;;;28.30;78.00;;;;;;5151904;27;20031;-83
2021/06/25 19:12:59;;;;;;;14.45;9.68;;;28.30;77.80;;;;;;5151473;27;20027;-83
2021/06/25 19:15:25;;;;;;;11.05;6.30;;;28.30;77.60;;;;;;5132846;27;20107;-83
2021/06/25 19:17:51;;;;;;;12.68;8.63;;;28.30;77.90;;;;;;5151665;27;20027;-82
2021/06/25 19:20:18;;;;;;;11.98;6.63;;;28.30;77.10;;;;;;5151912;27;20038;-88
2021/06/25 19:22:45;;;;;;;21.60;16.17;;;28.30;76.50;;;;;;5129609;27;20354;-83
2021/06/25 19:25:13;;;;;;;24.15;14.68;;;28.30;76.60;;;;;;5130083;27;20431;-83
2021/06/25 19:27:40;;;;;;;27.70;20.90;;;28.40;75.30;;;;;;5150818;27;20031;-80
2021/06/25 19:30:09;;;;;;;20.50;14.93;;;28.40;75.60;;;;;;5145960;27;20024;-82
2021/06/25 19:32:35;;;;;;;292.30;224.40;;;28.40;76.00;;;;;;5125732;27;20381;-80
2021/06/25 19:35:01;;;;;;;78.75;60.92;;;28.30;77.20;;;;;;5151544;27;20065;-83
2021/06/25 19:37:27;;;;;;;120.70;97.07;;;28.30;77.00;;;;;;5151634;27;20023;-81
2021/06/25 19:40:00;;;;;;;48.60;39.75;;;28.30;76.80;;;;;;5142102;27;20048;-83
2021/06/25 19:42:25;;;;;;;49.70;34.58;;;28.30;76.30;;;;;;5129368;28;20024;-79
2021/06/25 19:44:51;;;;;;;29.92;22.42;;;28.30;76.20;;;;;;5112687;27;20020;-83
2021/06/25 19:47:17;;;;;;;27.80;19.42;;;28.20;76.60;;;;;;5116088;28;20094;-82
2021/06/25 19:49:43;;;;;;;30.63;21.02;;;28.20;76.90;;;;;;5120436;28;20024;-82
2021/06/25 19:52:08;;;;;;;85.82;60.28;;;28.10;77.20;;;;;;5119777;28;20031;-79
2021/06/25 19:54:58;;;;;;;;;;;;;;;;;;;;;
2021/06/25 19:57:30;;;;;;;20.13;9.93;;;28.10;77.50;;;;;;5116363;28;20461;-81
2021/06/25 19:59:56;;;;;;;10.40;7.90;;;28.00;79.10;;;;;;5114909;28;20019;-82
2021/06/25 20:02:34;;;;;;;13.32;7.60;;;28.00;78.80;;;;;;5115472;28;20023;-80
2021/06/25 20:05:03;;;;;;;11.38;6.75;;;28.00;78.50;;;;;;5114624;28;20048;-83
2021/06/25 20:07:32;;;;;;;8.02;6.88;;;28.00;78.50;;;;;;5116055;28;20051;-86
2021/06/25 20:09:58;;;;;;;11.05;6.05;;;27.90;78.30;;;;;;5115118;28;20069;-82
2021/06/25 20:12:24;;;;;;;9.10;5.38;;;27.80;79.20;;;;;;5114887;28;20027;-81
2021/06/25 20:15:13;;;;;;;8.45;5.57;;;27.80;79.50;;;;;;5115789;28;20389;-84
2021/06/25 20:17:40;;;;;;;16.65;7.80;;;27.70;80.10;;;;;;5115072;28;20051;-83
2021/06/25 20:20:21;;;;;;;11.85;7.93;;;27.60;80.30;;;;;;5114905;28;20032;-85
2021/06/25 20:23:01;;;;;;;24.00;15.68;;;27.60;81.10;;;;;;5095021;28;20027;-81
2021/06/25 20:25:31;;;;;;;16.92;9.25;;;27.50;81.00;;;;;;5105403;28;20088;-84
2021/06/25 20:27:59;;;;;;;15.40;7.50;;;27.50;80.90;;;;;;5112982;28;20028;-85
2021/06/25 20:30:24;;;;;;;12.13;6.10;;;27.40;81.80;;;;;;5116099;28;20088;-84
2021/06/25 20:32:50;;;;;;;9.65;6.00;;;27.40;81.50;;;;;;5095731;28;20473;-87
2021/06/25 20:35:17;;;;;;;7.43;5.70;;;27.40;82.40;;;;;;5116403;28;20055;-85
2021/06/25 20:37:43;;;;;;;12.65;6.22;;;27.30;82.40;;;;;;5114786;28;20378;-87
2021/06/25 20:40:11;;;;;;;9.57;6.00;;;27.30;83.50;;;;;;5114760;28;20453;-82
2021/06/25 20:42:46;;;;;;;12.88;6.22;;;27.20;84.20;;;;;;5121919;27;20072;-83
2021/06/25 20:45:13;;;;;;;9.88;5.95;;;27.20;84.10;;;;;;5124508;27;20019;-90
2021/06/25 20:47:39;;;;;;;14.27;10.90;;;27.20;83.90;;;;;;5118123;27;20143;-86
2021/06/25 20:50:07;;;;;;;9.85;7.32;;;27.20;83.70;;;;;;5114176;28;20024;-81
2021/06/25 20:52:32;;;;;;;16.58;6.68;;;27.30;84.00;;;;;;5114128;28;20473;-84
2021/06/25 20:54:58;;;;;;;13.18;6.78;;;27.30;83.90;;;;;;5115918;28;20062;-84
2021/06/25 20:57:24;;;;;;;24.30;13.38;;;27.30;84.20;;;;;;5114142;28;20024;-84
2021/06/25 20:59:49;;;;;;;25.95;15.00;;;27.30;84.20;;;;;;5114104;28;20046;-83
2021/06/25 21:02:15;;;;;;;9.45;5.80;;;27.40;84.50;;;;;;5115077;28;20026;-83
2021/06/25 21:04:41;;;;;;;8.48;5.47;;;27.40;84.40;;;;;;5106907;28;20469;-81
2021/06/25 21:07:07;;;;;;;9.05;6.20;;;27.40;85.00;;;;;;5109203;28;20024;-80
2021/06/25 21:09:33;;;;;;;11.20;6.22;;;27.40;85.30;;;;;;5115094;28;20102;-83
2021/06/25 21:11:59;;;;;;;12.15;6.35;;;27.40;85.60;;;;;;5113400;28;20036;-84
2021/06/25 21:14:25;;;;;;;8.10;5.55;;;27.30;86.20;;;;;;5114100;28;20059;-85
2021/06/25 21:16:51;;;;;;;8.43;5.50;;;27.20;86.20;;;;;;5115351;28;20031;-85
2021/06/25 21:19:17;;;;;;;8.45;4.72;;;27.30;86.20;;;;;;5115580;28;20027;-80
2021/06/25 21:21:43;;;;;;;8.18;5.25;;;27.30;86.10;;;;;;5115282;28;20378;-80
2021/06/25 21:24:12;;;;;;;9.60;5.90;;;27.20;86.70;;;;;;5115164;28;20023;-80
2021/06/25 21:26:39;;;;;;;11.48;5.90;;;27.20;86.80;;;;;;5115413;28;20019;-87
2021/06/25 21:29:05;;;;;;;10.27;6.18;;;27.10;87.20;;;;;;5113712;28;20028;-87
2021/06/25 21:31:30;;;;;;;10.50;5.50;;;27.10;87.60;;;;;;5115073;28;20030;-81
2021/06/25 21:33:56;;;;;;;9.70;6.13;;;27.10;87.30;;;;;;5114984;28;20377;-80
2021/06/25 21:36:22;;;;;;;6.47;5.28;;;27.20;87.40;;;;;;5103539;28;20485;-81
2021/06/25 21:38:47;;;;;;;12.18;6.00;;;27.10;87.10;;;;;;5100863;28;20047;-80
2021/06/25 21:41:13;;;;;;;6.28;5.68;;;27.10;87.90;;;;;;5124906;27;20043;-80
2021/06/25 21:43:39;;;;;;;8.45;5.90;;;27.10;87.80;;;;;;5115551;28;20043;-83
2021/06/25 21:46:04;;;;;;;10.32;5.70;;;27.10;87.90;;;;;;5127338;27;20054;-81
2021/06/25 21:48:30;;;;;;;6.32;5.65;;;27.00;88.20;;;;;;5135228;27;20094;-84
2021/06/25 21:50:56;;;;;;;7.88;5.60;;;27.00;88.20;;;;;;5135608;27;20027;-80
2021/06/25 21:53:21;;;;;;;9.43;5.93;;;27.00;88.70;;;;;;5117386;27;20126;-82
2021/06/25 21:55:53;;;;;;;8.55;6.53;;;27.00;89.00;;;;;;5135026;27;20031;-81
2021/06/25 21:58:24;;;;;;;8.52;5.85;;;26.90;89.80;;;;;;5134990;27;20536;-80
2021/06/25 22:00:52;;;;;;;10.73;6.57;;;26.80;90.10;;;;;;5134750;27;20070;-79
2021/06/25 22:03:18;;;;;;;8.40;6.70;;;26.80;90.70;;;;;;5135585;27;20027;-79
2021/06/25 22:05:44;;;;;;;7.88;6.40;;;26.70;90.80;;;;;;5134524;27;20019;-79
2021/06/25 22:08:10;;;;;;;10.15;6.10;;;26.60;91.10;;;;;;5134813;27;20015;-81
2021/06/25 22:10:36;;;;;;;14.02;6.45;;;26.60;91.20;;;;;;5128529;27;20031;-80
2021/06/25 22:13:03;;;;;;;9.88;6.60;;;26.60;91.20;;;;;;5114060;28;20020;-80
2021/06/25 22:15:29;;;;;;;6.80;6.05;;;26.60;91.20;;;;;;5113731;28;20024;-79
2021/06/25 22:17:55;;;;;;;9.68;6.88;;;26.70;91.00;;;;;;5095622;28;20554;-80
2021/06/25 22:20:20;;;;;;;8.40;5.93;;;26.60;90.80;;;;;;5128569;27;20143;-79
2021/06/25 22:22:46;;;;;;;7.35;5.85;;;26.70;91.20;;;;;;5134553;27;20023;-82
2021/06/25 22:25:12;;;;;;;8.65;6.18;;;26.70;91.00;;;;;;5134510;27;20076;-77
2021/06/25 22:27:38;;;;;;;7.70;5.95;;;26.70;90.90;;;;;;5118142;27;20033;-79
2021/06/25 22:30:09;;;;;;;10.52;6.75;;;26.70;90.90;;;;;;5121863;27;20023;-77
2021/06/25 22:32:35;;;;;;;8.07;6.40;;;26.70;91.10;;;;;;5134643;27;20102;-77
2021/06/25 22:35:01;;;;;;;9.27;6.60;;;26.60;91.20;;;;;;5134291;27;20034;-77
2021/06/25 22:37:27;;;;;;;12.23;6.45;;;26.60;91.40;;;;;;5134937;27;20019;-79
2021/06/25 22:39:53;;;;;;;9.88;6.03;;;26.60;91.20;;;;;;5114891;28;20127;-79
2021/06/25 22:42:19;;;;;;;7.82;5.88;;;26.60;91.10;;;;;;5113983;28;20034;-79
2021/06/25 22:44:46;;;;;;;13.35;6.40;;;26.50;91.00;;;;;;5114454;28;20020;-79
2021/06/25 22:47:12;;;;;;;15.05;9.95;;;26.50;90.90;;;;;;5095709;28;20092;-80
2021/06/25 22:49:38;;;;;;;22.10;12.10;;;26.50;91.00;;;;;;5095995;28;20528;-78
2021/06/25 22:52:04;;;;;;;17.85;9.52;;;26.50;91.10;;;;;;5134608;28;20020;-78
2021/06/25 22:54:30;;;;;;;9.82;6.78;;;26.40;91.30;;;;;;5134657;28;20091;-79
2021/06/25 22:56:56;;;;;;;12.02;7.03;;;26.40;91.40;;;;;;5116148;28;20358;-79
2021/06/25 22:59:22;;;;;;;12.45;7.35;;;26.40;91.40;;;;;;5134775;28;20034;-78
2021/06/25 23:01:48;;;;;;;9.82;6.63;;;26.40;91.30;;;;;;5116025;28;20415;-78
2021/06/25 23:04:15;;;;;;;7.20;6.35;;;26.40;91.40;;;;;;5134762;28;20023;-79
2021/06/25 23:06:40;;;;;;;9.85;7.15;;;26.30;91.50;;;;;;5134570;28;20570;-79
2021/06/25 23:09:06;;;;;;;7.47;6.40;;;26.30;91.80;;;;;;5134351;28;20101;-78
2021/06/25 23:11:32;;;;;;;9.10;6.20;;;26.20;91.80;;;;;;5115891;28;20029;-79
2021/06/25 23:13:58;;;;;;;10.82;6.57;;;26.20;91.90;;;;;;5115911;28;20050;-79
2021/06/25 23:16:24;;;;;;;8.48;6.50;;;26.20;91.90;;;;;;5134240;28;20021;-78
2021/06/25 23:18:50;;;;;;;9.45;6.50;;;26.10;92.20;;;;;;5134342;28;20438;-79
2021/06/25 23:21:16;;;;;;;9.82;6.40;;;26.00;92.40;;;;;;5134526;28;20023;-79
2021/06/25 23:23:41;;;;;;;9.25;6.93;;;26.00;92.40;;;;;;5134171;28;20050;-79
2021/06/25 23:26:07;;;;;;;9.45;6.50;;;26.00;92.30;;;;;;5134991;27;20421;-79
2021/06/25 23:28:33;;;;;;;8.10;6.53;;;26.00;92.30;;;;;;5138416;27;20038;-78
2021/06/25 23:30:59;;;;;;;8.68;6.70;;;26.00;92.50;;;;;;5138348;27;20023;-78
2021/06/25 23:33:24;;;;;;;13.38;7.10;;;25.90;92.40;;;;;;5138444;27;20038;-78
2021/06/25 23:35:50;;;;;;;12.32;6.50;;;25.90;92.50;;;;;;5138253;27;20442;-78
2021/06/25 23:38:16;;;;;;;9.10;6.97;;;25.90;92.70;;;;;;5137978;27;20019;-79
2021/06/25 23:40:42;;;;;;;9.15;6.20;;;25.90;92.80;;;;;;5137617;27;20075;-79
2021/06/25 23:43:08;;;;;;;11.48;7.43;;;25.90;92.80;;;;;;5138314;27;20030;-79
2021/06/25 23:45:33;;;;;;;11.73;7.60;;;25.90;93.00;;;;;;5138102;27;20458;-79
2021/06/25 23:48:01;;;;;;;9.15;7.25;;;25.90;93.10;;;;;;5138404;27;20022;-79
2021/06/25 23:50:27;;;;;;;13.20;6.90;;;25.90;93.20;;;;;;5137684;27;20031;-79
2021/06/25 23:52:52;;;;;;;10.57;7.38;;;25.90;93.20;;;;;;5137960;27;20027;-79
2021/06/25 23:55:18;;;;;;;12.95;7.57;;;25.80;93.30;;;;;;5137561;27;20030;-79
2021/06/25 23:57:44;;;;;;;8.23;6.53;;;25.80;93.30;;;;;;5137606;27;20031;-78
